Time;durP1;ratioP1;P1;durP2;ratioP2;P2;SDS_P1;SDS_P2;PMS_P1;PMS_P2;Temp;Humidity;BMP_temperature;BMP_pressure;BME280_temperature;BME280_humidity;BME280_pressure;Samples;Min_cycle;Max_cycle;Signal;HPM_P1;HPM_P2
2021/01/17 00:02:08;;;;;;;9.40;3.40;;;28.20;51.60;;;;;;5011815;28;20394;-74
2021/01/17 00:04:35;;;;;;;6.32;2.78;;;28.40;51.50;;;;;;5011778;28;20360;-75
2021/01/17 00:07:01;;;;;;;5.68;3.10;;;28.30;51.30;;;;;;5011527;28;20470;-74
2021/01/17 00:09:28;;;;;;;7.25;3.15;;;28.10;51.60;;;;;;4992840;28;20037;-74
2021/01/17 00:11:55;;;;;;;5.85;2.58;;;27.80;52.10;;;;;;5010556;28;20045;-74
2021/01/17 00:14:22;;;;;;;10.10;2.90;;;27.90;52.60;;;;;;5011731;28;20026;-74
2021/01/17 00:16:50;;;;;;;7.72;3.60;;;27.50;53.20;;;;;;5011686;28;20029;-74
2021/01/17 00:19:17;;;;;;;6.50;3.03;;;27.20;53.90;;;;;;5011159;28;20037;-74
2021/01/17 00:21:45;;;;;;;10.50;2.88;;;27.10;54.30;;;;;;5011308;28;20091;-74
2021/01/17 00:24:12;;;;;;;8.95;3.58;;;26.60;54.80;;;;;;5009073;28;20041;-73
2021/01/17 00:26:38;;;;;;;9.05;3.55;;;26.10;55.40;;;;;;4974107;28;20046;-74
2021/01/17 00:29:05;;;;;;;8.52;2.85;;;25.50;56.50;;;;;;4980120;28;20383;-73
2021/01/17 00:31:36;;;;;;;8.38;4.05;;;25.00;57.30;;;;;;5011648;28;20041;-74
2021/01/17 00:34:04;;;;;;;10.63;3.50;;;24.60;58.10;;;;;;5010131;28;20034;-73
2021/01/17 00:36:37;;;;;;;9.50;3.35;;;24.10;58.90;;;;;;5010179;28;20049;-76
2021/01/17 00:39:06;;;;;;;9.32;3.28;;;23.70;60.00;;;;;;5010193;28;20045;-75
2021/01/17 00:41:33;;;;;;;10.70;3.60;;;23.20;60.60;;;;;;5010846;28;20049;-75
2021/01/17 00:44:00;;;;;;;7.20;3.45;;;22.80;61.10;;;;;;5014931;28;20026;-73
2021/01/17 00:46:34;;;;;;;7.85;4.15;;;22.50;62.50;;;;;;5015428;28;20037;-76
2021/01/17 00:49:01;;;;;;;9.70;4.22;;;22.30;62.80;;;;;;5015049;28;20625;-75
2021/01/17 00:51:41;;;;;;;6.80;3.55;;;21.80;63.60;;;;;;5014730;28;20042;-75
2021/01/17 00:54:09;;;;;;;7.70;3.35;;;21.10;65.60;;;;;;5015003;28;20025;-75
2021/01/17 00:56:37;;;;;;;7.38;3.03;;;20.80;66.50;;;;;;5013371;28;20045;-73
2021/01/17 00:59:05;;;;;;;8.68;3.38;;;20.80;66.70;;;;;;5013221;28;20036;-74
2021/01/17 01:01:38;;;;;;;10.15;4.47;;;20.70;67.00;;;;;;5013162;28;20041;-74
2021/01/17 01:04:06;;;;;;;5.80;2.85;;;20.30;68.40;;;;;;5010782;28;20041;-74
2021/01/17 01:06:34;;;;;;;5.93;3.47;;;20.20;67.80;;;;;;5013765;28;20033;-73
2021/01/17 01:09:03;;;;;;;6.47;3.42;;;20.30;67.70;;;;;;5012962;28;20053;-73
2021/01/17 01:11:31;;;;;;;5.47;2.75;;;20.20;67.00;;;;;;5014225;28;20029;-73
2021/01/17 01:13:57;;;;;;;6.13;3.45;;;20.10;67.50;;;;;;5013632;28;20382;-74
2021/01/17 01:16:24;;;;;;;5.38;2.70;;;19.90;69.00;;;;;;5013570;28;20433;-74
2021/01/17 01:18:51;;;;;;;7.68;4.90;;;19.80;69.90;;;;;;5013798;28;20022;-73
2021/01/17 01:21:29;;;;;;;9.38;4.90;;;19.80;70.60;;;;;;5013688;28;20045;-74
2021/01/17 01:23:56;;;;;;;8.90;5.82;;;19.70;70.50;;;;;;4997049;28;20037;-73
2021/01/17 01:26:23;;;;;;;8.93;5.65;;;19.50;71.60;;;;;;5013788;28;20029;-73
2021/01/17 01:28:55;;;;;;;10.52;4.72;;;19.50;72.00;;;;;;5013698;28;20026;-74
2021/01/17 01:31:24;;;;;;;;;;;19.30;71.70;;;;;;5013713;28;20021;-74
2021/01/17 01:33:52;;;;;;;7.03;3.97;;;19.20;73.70;;;;;;5013841;28;19913;-74
2021/01/17 01:36:25;;;;;;;6.97;3.92;;;19.10;73.90;;;;;;5013371;28;20487;-74
2021/01/17 01:38:53;;;;;;;8.65;3.55;;;19.00;73.90;;;;;;5013894;28;20370;-73
2021/01/17 01:41:21;;;;;;;7.70;3.40;;;18.90;74.00;;;;;;5013218;28;20061;-74
2021/01/17 01:43:48;;;;;;;16.20;3.22;;;18.80;74.40;;;;;;5012678;28;20034;-75
2021/01/17 01:46:18;;;;;;;9.90;3.33;;;18.70;73.70;;;;;;5013881;28;20037;-75
2021/01/17 01:48:45;;;;;;;7.32;3.00;;;18.60;73.60;;;;;;5013764;28;20029;-76
2021/01/17 01:51:16;;;;;;;7.28;3.38;;;18.40;73.60;;;;;;4996378;28;20026;-75
2021/01/17 01:53:44;;;;;;;7.47;3.10;;;18.30;74.40;;;;;;5013000;28;20041;-75
2021/01/17 01:56:14;;;;;;;6.70;4.00;;;18.10;73.80;;;;;;4995983;28;20030;-76
2021/01/17 01:58:45;;;;;;;7.13;3.50;;;18.00;73.90;;;;;;5012568;28;20466;-74
2021/01/17 02:01:13;;;;;;;9.70;3.80;;;17.90;73.90;;;;;;5013111;28;20046;-76
2021/01/17 02:03:46;;;;;;;10.13;3.30;;;17.70;73.30;;;;;;5013454;28;20041;-74
2021/01/17 02:06:17;;;;;;;6.70;3.15;;;17.60;73.40;;;;;;5013094;28;20386;-74
2021/01/17 02:08:56;;;;;;;;;;;17.70;72.80;;;;;;5011424;28;20057;-74
2021/01/17 02:11:38;;;;;;;4.20;2.30;;;17.60;72.40;;;;;;5013536;28;19909;-74
2021/01/17 02:14:38;;;;;;;7.18;2.38;;;17.70;71.90;;;;;;5013481;28;20026;-74
2021/01/17 02:17:18;;;;;;;3.85;1.65;;;17.50;72.70;;;;;;5012799;28;20485;-74
2021/01/17 02:20:15;;;;;;;3.88;1.40;;;17.50;73.40;;;;;;4994541;28;20038;-74
2021/01/17 02:22:58;;;;;;;4.55;1.67;;;17.50;74.50;;;;;;5009625;28;20482;-75
2021/01/17 02:25:33;;;;;;;5.47;2.15;;;17.50;75.00;;;;;;5012760;28;20382;-75
2021/01/17 02:28:18;;;;;;;4.18;1.23;;;17.50;75.00;;;;;;5012445;28;20033;-73
2021/01/17 02:30:51;;;;;;;2.95;1.40;;;17.50;75.90;;;;;;5012441;28;20042;-75
2021/01/17 02:33:21;;;;;;;2.83;1.88;;;17.60;76.60;;;;;;5012556;28;20033;-75
2021/01/17 02:35:51;;;;;;;3.03;1.70;;;17.60;76.40;;;;;;5012885;28;20470;-75
2021/01/17 02:38:45;;;;;;;2.88;1.70;;;17.40;77.20;;;;;;5012920;28;20038;-74
2021/01/17 02:41:44;;;;;;;4.38;1.50;;;17.40;77.60;;;;;;5012888;28;20046;-75
2021/01/17 02:44:13;;;;;;;3.83;1.90;;;17.40;77.90;;;;;;4999166;28;20037;-74
2021/01/17 02:46:40;;;;;;;2.65;1.70;;;17.50;77.70;;;;;;5012913;28;20038;-74
2021/01/17 02:49:07;;;;;;;4.13;1.90;;;17.40;77.40;;;;;;5012947;28;20094;-75
2021/01/17 02:51:33;;;;;;;4.28;2.22;;;17.40;78.10;;;;;;5011625;28;20041;-75
2021/01/17 02:54:36;;;;;;;3.28;1.80;;;17.40;79.30;;;;;;5012060;28;20022;-75
2021/01/17 02:57:09;;;;;;;5.57;1.65;;;17.40;78.90;;;;;;5007102;28;20046;-75
2021/01/17 03:00:05;;;;;;;2.13;1.60;;;17.40;79.20;;;;;;5011259;28;20033;-76
2021/01/17 03:02:35;;;;;;;2.08;1.67;;;17.40;79.50;;;;;;5012742;28;20042;-75
2021/01/17 03:05:07;;;;;;;3.27;1.70;;;17.40;79.20;;;;;;5012263;28;20018;-76
2021/01/17 03:07:36;;;;;;;2.55;1.70;;;17.40;78.50;;;;;;5011402;28;20046;-74
2021/01/17 03:10:09;;;;;;;4.40;2.05;;;17.40;78.40;;;;;;5012026;28;20374;-74
2021/01/17 03:12:36;;;;;;;2.22;1.98;;;17.40;78.30;;;;;;4993846;28;20494;-75
2021/01/17 03:15:05;;;;;;;4.90;2.05;;;17.40;78.20;;;;;;5004095;28;20037;-74
2021/01/17 03:17:32;;;;;;;2.40;1.55;;;17.30;77.70;;;;;;5011286;28;20034;-76
2021/01/17 03:19:59;;;;;;;2.25;1.50;;;17.30;78.90;;;;;;5012415;28;20037;-76
2021/01/17 03:22:26;;;;;;;3.08;1.58;;;17.30;78.40;;;;;;5012692;28;20037;-76
2021/01/17 03:24:53;;;;;;;2.83;1.63;;;17.20;78.60;;;;;;5012531;28;20033;-75
2021/01/17 03:27:20;;;;;;;4.68;1.75;;;17.30;77.80;;;;;;5012546;28;20045;-75
2021/01/17 03:29:47;;;;;;;2.33;1.50;;;17.20;77.30;;;;;;5012345;28;20037;-75
2021/01/17 03:32:14;;;;;;;4.03;1.50;;;17.30;77.10;;;;;;5012309;28;20030;-75
2021/01/17 03:34:42;;;;;;;3.50;2.00;;;17.20;76.40;;;;;;5012170;28;20029;-75
2021/01/17 03:37:09;;;;;;;4.72;2.17;;;17.30;76.10;;;;;;5011914;28;20026;-76
2021/01/17 03:39:36;;;;;;;4.82;2.47;;;17.30;76.20;;;;;;5012031;28;20044;-74
2021/01/17 03:42:03;;;;;;;3.33;2.03;;;17.30;75.80;;;;;;5012884;28;20038;-76
2021/01/17 03:44:30;;;;;;;2.85;1.75;;;17.20;75.50;;;;;;5011561;28;20049;-76
2021/01/17 03:46:57;;;;;;;2.13;1.00;;;17.20;75.50;;;;;;5010787;28;20034;-76
2021/01/17 03:49:23;;;;;;;2.17;1.17;;;17.30;75.20;;;;;;5012040;28;20022;-75
2021/01/17 03:51:50;;;;;;;2.42;1.35;;;17.30;74.90;;;;;;5011727;28;20030;-75
2021/01/17 03:54:17;;;;;;;2.60;1.10;;;17.30;75.20;;;;;;5011403;28;20025;-76
2021/01/17 03:56:45;;;;;;;7.47;4.13;;;17.20;75.10;;;;;;5010711;28;20418;-75
2021/01/17 03:59:16;;;;;;;6.60;3.90;;;17.20;75.50;;;;;;5011693;28;20029;-75
2021/01/17 04:01:43;;;;;;;5.25;2.25;;;17.00;76.60;;;;;;5011793;28;20034;-76
2021/01/17 04:04:10;;;;;;;4.18;1.73;;;16.70;77.40;;;;;;5011622;28;20442;-75
2021/01/17 04:06:38;;;;;;;3.17;1.02;;;16.70;77.00;;;;;;5011496;28;20030;-75
2021/01/17 04:09:06;;;;;;;1.58;0.90;;;16.60;76.90;;;;;;5011065;28;20034;-75
2021/01/17 04:11:34;;;;;;;1.58;1.30;;;16.60;76.20;;;;;;5010162;28;20038;-75
2021/01/17 04:14:01;;;;;;;2.15;0.88;;;16.50;76.50;;;;;;5011598;28;20042;-76
2021/01/17 04:16:28;;;;;;;1.92;0.98;;;16.50;76.20;;;;;;5010554;28;20049;-75
2021/01/17 04:18:55;;;;;;;1.58;0.90;;;16.60;76.30;;;;;;5015840;28;20040;-75
2021/01/17 04:21:22;;;;;;;1.23;0.98;;;16.60;76.20;;;;;;5015446;28;20037;-75
2021/01/17 04:23:49;;;;;;;1.73;0.90;;;16.60;75.90;;;;;;5015506;28;20505;-75
2021/01/17 04:26:18;;;;;;;2.05;1.10;;;16.50;76.00;;;;;;4997043;28;20506;-75
2021/01/17 04:28:46;;;;;;;4.65;1.10;;;16.40;76.30;;;;;;5015619;28;20093;-75
2021/01/17 04:31:13;;;;;;;5.00;1.58;;;16.60;76.50;;;;;;5013996;28;20038;-75
2021/01/17 04:33:40;;;;;;;3.90;1.00;;;16.60;76.10;;;;;;5015467;28;20022;-76
2021/01/17 04:36:08;;;;;;;2.45;1.40;;;16.60;76.30;;;;;;5015015;28;20041;-75
2021/01/17 04:38:35;;;;;;;2.58;1.63;;;16.70;76.50;;;;;;5015109;28;20026;-75
2021/01/17 04:41:04;;;;;;;2.10;1.10;;;16.80;75.70;;;;;;5015373;28;20049;-75
2021/01/17 04:43:34;;;;;;;1.60;1.10;;;16.70;75.40;;;;;;5014893;28;20026;-75
2021/01/17 04:46:07;;;;;;;1.70;0.55;;;16.80;73.60;;;;;;5014726;28;20175;-75
2021/01/17 04:48:35;;;;;;;1.40;0.80;;;17.30;70.80;;;;;;5013903;28;20049;-76
2021/01/17 04:51:04;;;;;;;2.65;0.88;;;17.50;70.10;;;;;;4996707;28;20040;-75
2021/01/17 04:53:35;;;;;;;1.15;0.60;;;17.50;69.90;;;;;;5015147;28;20026;-75
2021/01/17 04:56:25;;;;;;;1.58;0.73;;;17.30;69.90;;;;;;5013904;28;20038;-75
2021/01/17 04:59:14;;;;;;;0.95;0.57;;;17.50;69.00;;;;;;4916889;29;20493;-75
2021/01/17 05:01:46;;;;;;;1.30;0.65;;;17.60;67.90;;;;;;4915996;29;20044;-75
2021/01/17 05:04:54;;;;;;;1.38;0.65;;;17.80;66.90;;;;;;4915490;29;20048;-75
2021/01/17 05:07:26;;;;;;;0.70;0.47;;;17.70;67.20;;;;;;4918944;29;20550;-76
2021/01/17 05:10:04;;;;;;;0.40;0.40;;;17.40;68.10;;;;;;4934816;29;20039;-75
2021/01/17 05:12:41;;;;;;;3.03;1.10;;;17.40;67.70;;;;;;4934836;29;20036;-76
2021/01/17 05:15:09;;;;;;;2.90;1.42;;;17.30;67.50;;;;;;4934580;29;20378;-75
2021/01/17 05:17:41;;;;;;;5.55;2.88;;;17.20;67.90;;;;;;4932029;29;20040;-75
2021/01/17 05:20:09;;;;;;;1.83;1.27;;;17.10;68.50;;;;;;4915646;29;20032;-74
2021/01/17 05:22:36;;;;;;;2.15;1.23;;;17.00;68.40;;;;;;4915416;29;20052;-75
2021/01/17 05:25:06;;;;;;;1.67;0.80;;;16.90;69.20;;;;;;4915670;29;20036;-74
2021/01/17 05:27:35;;;;;;;3.22;0.73;;;17.20;68.20;;;;;;4914834;29;20057;-73
2021/01/17 05:30:05;;;;;;;1.00;0.60;;;17.50;67.80;;;;;;4931284;29;20043;-73
2021/01/17 05:32:33;;;;;;;2.27;1.20;;;17.50;67.60;;;;;;4934275;29;20032;-75
2021/01/17 05:35:00;;;;;;;1.73;1.00;;;17.50;67.70;;;;;;4941309;28;20063;-75
2021/01/17 05:37:27;;;;;;;4.28;0.82;;;17.60;67.90;;;;;;4994408;28;20352;-75
2021/01/17 05:39:57;;;;;;;1.98;0.80;;;17.60;68.00;;;;;;5011122;28;20022;-75
2021/01/17 05:42:31;;;;;;;1.00;0.60;;;17.60;68.10;;;;;;5014021;28;20045;-74
2021/01/17 05:45:23;;;;;;;1.05;0.63;;;17.60;68.20;;;;;;5013872;28;20042;-74
2021/01/17 05:47:58;;;;;;;1.17;0.80;;;17.50;68.10;;;;;;5013647;28;20034;-75
2021/01/17 05:50:30;;;;;;;2.67;0.88;;;17.60;67.70;;;;;;5013712;28;20022;-74
2021/01/17 05:53:02;;;;;;;1.35;0.88;;;17.50;67.90;;;;;;5013266;28;20029;-74
2021/01/17 05:55:49;;;;;;;1.50;0.80;;;17.70;67.90;;;;;;5013693;28;20375;-74
2021/01/17 05:58:31;;;;;;;2.83;1.48;;;17.60;68.00;;;;;;5012917;28;20038;-75
2021/01/17 06:01:15;;;;;;;2.58;1.50;;;17.50;68.60;;;;;;5012936;28;20045;-75
2021/01/17 06:03:49;;;;;;;1.60;1.05;;;17.40;69.00;;;;;;5013592;28;20037;-75
2021/01/17 06:06:26;;;;;;;4.63;1.30;;;17.40;69.20;;;;;;5013380;28;20026;-75
2021/01/17 06:09:00;;;;;;;2.00;0.95;;;17.30;69.70;;;;;;5013379;28;20489;-75
2021/01/17 06:11:28;;;;;;;1.45;0.80;;;17.30;69.90;;;;;;5012748;28;20042;-75
2021/01/17 06:14:03;;;;;;;1.42;0.82;;;17.20;70.10;;;;;;5012313;28;20043;-75
2021/01/17 06:16:34;;;;;;;1.60;1.00;;;17.20;70.40;;;;;;5012339;28;20049;-75
2021/01/17 06:19:04;;;;;;;2.85;1.30;;;17.20;70.70;;;;;;5013334;28;20029;-74
2021/01/17 06:21:32;;;;;;;3.35;0.90;;;17.10;70.80;;;;;;4994552;28;20053;-75
2021/01/17 06:23:59;;;;;;;2.08;0.80;;;17.00;71.10;;;;;;5012607;28;20053;-75
2021/01/17 06:26:29;;;;;;;2.53;1.58;;;16.90;71.60;;;;;;5013161;28;20037;-74
2021/01/17 06:28:56;;;;;;;2.83;1.25;;;16.90;71.40;;;;;;5013542;28;20041;-75
2021/01/17 06:31:29;;;;;;;4.00;1.58;;;16.90;71.10;;;;;;5012231;28;20045;-75
2021/01/17 06:34:10;;;;;;;1.77;1.02;;;16.90;70.90;;;;;;4995491;28;20049;-75
2021/01/17 06:36:39;;;;;;;2.10;1.20;;;16.80;70.70;;;;;;5013093;28;20018;-75
2021/01/17 06:39:19;;;;;;;2.85;1.02;;;16.70;71.00;;;;;;5012562;28;20038;-74
2021/01/17 06:41:57;;;;;;;3.03;1.20;;;16.60;71.10;;;;;;5013399;28;20045;-74
2021/01/17 06:44:29;;;;;;;1.20;1.00;;;16.60;71.30;;;;;;5011651;28;20029;-74
2021/01/17 06:46:57;;;;;;;1.13;0.82;;;16.50;71.40;;;;;;5013064;28;20356;-75
2021/01/17 06:49:28;;;;;;;2.70;0.93;;;16.50;71.20;;;;;;5012788;28;20026;-74
2021/01/17 06:51:57;;;;;;;1.13;1.02;;;16.40;71.60;;;;;;5011138;28;20391;-74
2021/01/17 06:54:33;;;;;;;1.38;1.00;;;16.40;71.40;;;;;;5012310;28;20395;-75
2021/01/17 06:57:02;;;;;;;1.50;0.98;;;16.30;71.50;;;;;;5012564;28;20033;-75
2021/01/17 06:59:49;;;;;;;1.30;0.80;;;16.30;71.40;;;;;;5012473;28;20034;-75
2021/01/17 07:02:15;;;;;;;2.50;0.88;;;16.30;71.30;;;;;;5012680;28;20038;-75
2021/01/17 07:05:26;;;;;;;3.03;0.98;;;16.20;71.60;;;;;;5012694;28;20486;-75
2021/01/17 07:08:37;;;;;;;2.63;1.15;;;16.20;71.40;;;;;;4951502;29;20043;-74
2021/01/17 07:11:34;;;;;;;2.33;0.77;;;16.10;71.50;;;;;;4940745;29;20396;-74
2021/01/17 07:14:06;;;;;;;1.27;0.77;;;16.10;71.40;;;;;;4950963;29;20051;-74
2021/01/17 07:16:35;;;;;;;2.42;0.98;;;16.10;71.60;;;;;;4950874;29;20051;-75
2021/01/17 07:19:04;;;;;;;1.98;0.80;;;16.00;71.50;;;;;;4951434;29;20039;-75
2021/01/17 07:21:39;;;;;;;3.05;0.90;;;16.10;71.50;;;;;;4950315;29;20047;-75
2021/01/17 07:24:08;;;;;;;2.83;1.20;;;16.20;71.40;;;;;;4950354;29;20039;-74
2021/01/17 07:27:20;;;;;;;3.17;0.90;;;16.30;71.40;;;;;;4950420;29;20039;-75
2021/01/17 07:29:52;;;;;;;4.07;1.88;;;16.20;71.60;;;;;;4948307;29;20050;-74
2021/01/17 07:32:35;;;;;;;2.92;0.90;;;16.20;71.80;;;;;;4950903;29;20039;-74
2021/01/17 07:35:11;;;;;;;1.70;0.90;;;16.30;71.50;;;;;;4951050;29;20043;-75
2021/01/17 07:37:43;;;;;;;1.73;0.93;;;16.20;71.70;;;;;;4951223;29;20039;-74
2021/01/17 07:40:10;;;;;;;2.22;0.93;;;16.20;71.70;;;;;;4951191;29;20035;-75
2021/01/17 07:42:38;;;;;;;1.83;1.25;;;16.30;71.50;;;;;;4958249;28;20043;-75
2021/01/17 07:45:19;;;;;;;2.90;1.00;;;16.30;71.40;;;;;;4989911;28;20061;-75
2021/01/17 07:47:46;;;;;;;1.30;0.88;;;16.20;71.80;;;;;;4991827;28;20042;-75
2021/01/17 07:50:14;;;;;;;2.10;1.10;;;16.10;72.00;;;;;;4992568;28;20027;-74
2021/01/17 07:52:59;;;;;;;1.05;0.77;;;16.00;72.30;;;;;;4991627;28;20026;-74
2021/01/17 07:55:27;;;;;;;0.93;0.70;;;15.90;72.60;;;;;;4990410;28;20042;-74
2021/01/17 07:57:55;;;;;;;1.83;1.30;;;15.70;72.80;;;;;;4990908;28;20038;-75
2021/01/17 08:00:26;;;;;;;1.95;1.05;;;15.60;73.00;;;;;;4992103;28;20041;-74
2021/01/17 08:02:53;;;;;;;5.70;1.10;;;15.50;72.60;;;;;;4991974;28;20031;-75
2021/01/17 08:05:39;;;;;;;2.33;1.23;;;15.70;72.10;;;;;;4991167;28;20042;-74
2021/01/17 08:08:35;;;;;;;1.83;1.00;;;15.60;72.00;;;;;;4991713;28;20034;-75
2021/01/17 08:11:03;;;;;;;3.55;1.33;;;15.60;72.10;;;;;;4992059;28;20030;-74
2021/01/17 08:13:33;;;;;;;2.00;1.20;;;15.50;72.50;;;;;;4991861;28;20102;-74
2021/01/17 08:16:14;;;;;;;2.00;1.30;;;15.60;72.10;;;;;;4991037;28;20038;-75
2021/01/17 08:18:42;;;;;;;4.90;0.90;;;15.40;72.60;;;;;;4991603;28;20038;-75
2021/01/17 08:21:22;;;;;;;5.93;1.30;;;15.30;72.10;;;;;;4991846;28;20029;-75
2021/01/17 08:24:13;;;;;;;1.88;0.98;;;15.40;71.00;;;;;;4992019;28;20042;-75
2021/01/17 08:27:02;;;;;;;1.20;0.93;;;15.30;71.10;;;;;;4991299;28;20045;-75
2021/01/17 08:29:29;;;;;;;2.10;0.93;;;15.20;71.60;;;;;;4991695;28;20026;-76
2021/01/17 08:31:56;;;;;;;10.70;1.75;;;15.20;70.90;;;;;;4991511;28;20042;-76
2021/01/17 08:34:28;;;;;;;2.70;1.20;;;15.30;70.50;;;;;;4991604;28;20031;-74
2021/01/17 08:36:56;;;;;;;1.40;0.82;;;15.30;69.70;;;;;;4991092;28;20387;-74
2021/01/17 08:39:42;;;;;;;1.30;0.75;;;15.20;69.70;;;;;;4990989;28;20038;-75
2021/01/17 08:42:29;;;;;;;4.18;0.95;;;15.10;69.50;;;;;;4992057;28;20038;-75
2021/01/17 08:44:56;;;;;;;4.72;1.30;;;15.20;68.60;;;;;;5000983;28;20049;-75
2021/01/17 08:47:24;;;;;;;1.60;0.70;;;15.00;69.20;;;;;;4992865;28;20390;-75
2021/01/17 08:49:51;;;;;;;4.50;1.10;;;15.20;68.30;;;;;;5011254;28;20030;-75
2021/01/17 08:52:44;;;;;;;2.08;0.93;;;15.00;67.70;;;;;;4993323;28;20041;-74
2021/01/17 08:55:11;;;;;;;1.75;0.90;;;15.10;68.00;;;;;;5007264;28;20038;-76
2021/01/17 08:57:41;;;;;;;2.35;1.50;;;15.10;67.40;;;;;;5010089;28;20479;-75
2021/01/17 09:00:10;;;;;;;0.82;0.52;;;15.10;68.00;;;;;;5010618;28;20033;-75
2021/01/17 09:02:38;;;;;;;2.20;0.80;;;15.00;68.20;;;;;;5011765;28;20368;-74
2021/01/17 09:05:17;;;;;;;1.63;0.80;;;14.90;68.30;;;;;;5014693;28;20506;-75
2021/01/17 09:07:46;;;;;;;4.35;0.82;;;14.90;68.30;;;;;;5014923;28;20034;-75
2021/01/17 09:10:16;;;;;;;1.13;0.80;;;14.90;68.30;;;;;;5014898;28;20033;-75
2021/01/17 09:12:43;;;;;;;1.42;0.88;;;14.90;68.60;;;;;;5014503;28;20021;-75
2021/01/17 09:15:19;;;;;;;1.23;0.70;;;14.90;68.20;;;;;;5014486;28;20034;-74
2021/01/17 09:18:06;;;;;;;1.08;0.85;;;14.80;68.40;;;;;;4996188;28;20041;-74
2021/01/17 09:20:35;;;;;;;3.17;1.13;;;14.80;67.80;;;;;;5014691;28;20041;-74
2021/01/17 09:23:03;;;;;;;2.53;1.00;;;14.80;68.00;;;;;;5014202;28;20034;-75
2021/01/17 09:25:31;;;;;;;3.10;0.82;;;14.70;67.90;;;;;;5014279;28;20471;-74
2021/01/17 09:27:58;;;;;;;1.23;0.80;;;14.80;67.60;;;;;;5014314;28;20034;-73
2021/01/17 09:30:25;;;;;;;1.55;1.00;;;14.80;68.30;;;;;;4995049;28;20394;-73
2021/01/17 09:32:52;;;;;;;3.45;1.33;;;14.80;67.20;;;;;;5014200;28;20034;-75
2021/01/17 09:35:22;;;;;;;1.55;1.00;;;14.80;67.70;;;;;;5014414;28;20030;-74
2021/01/17 09:37:57;;;;;;;1.60;0.80;;;14.80;66.80;;;;;;5013811;28;20037;-74
2021/01/17 09:40:24;;;;;;;2.00;1.00;;;14.70;67.30;;;;;;4995086;28;20463;-74
2021/01/17 09:42:53;;;;;;;2.28;1.10;;;14.60;68.10;;;;;;4994697;28;20061;-74
2021/01/17 09:45:20;;;;;;;1.98;1.20;;;14.70;67.30;;;;;;4994682;28;20045;-73
2021/01/17 09:47:48;;;;;;;4.03;1.35;;;14.60;67.60;;;;;;4994587;28;20026;-74
2021/01/17 09:50:15;;;;;;;2.35;1.48;;;14.60;66.60;;;;;;5011202;28;20379;-74
2021/01/17 09:52:42;;;;;;;3.20;1.73;;;14.70;66.50;;;;;;5013966;28;20489;-74
2021/01/17 09:55:13;;;;;;;2.25;1.60;;;14.60;66.60;;;;;;5013759;28;20041;-73
2021/01/17 09:57:41;;;;;;;2.67;1.80;;;14.60;66.60;;;;;;5013811;28;20471;-74
2021/01/17 10:00:22;;;;;;;3.20;1.50;;;14.60;66.10;;;;;;5013567;28;20025;-74
2021/01/17 10:02:50;;;;;;;3.13;1.63;;;14.70;65.50;;;;;;5013860;28;20041;-71
2021/01/17 10:05:30;;;;;;;17.58;3.53;;;14.70;65.20;;;;;;5013843;28;20078;-71
2021/01/17 10:08:02;;;;;;;2.90;1.40;;;14.70;64.50;;;;;;5013567;28;20030;-71
2021/01/17 10:10:29;;;;;;;2.40;1.33;;;14.70;65.20;;;;;;5011218;28;20041;-71
2021/01/17 10:12:56;;;;;;;5.03;1.50;;;14.70;65.20;;;;;;5013571;28;20029;-70
2021/01/17 10:15:25;;;;;;;2.08;0.95;;;14.80;64.20;;;;;;5012861;28;20033;-71
2021/01/17 10:17:53;;;;;;;1.58;1.00;;;14.90;63.90;;;;;;4995664;28;20398;-71
2021/01/17 10:20:27;;;;;;;2.10;1.17;;;14.80;64.30;;;;;;5013353;28;20018;-72
2021/01/17 10:23:06;;;;;;;3.42;1.23;;;14.70;64.70;;;;;;4995145;28;20050;-71
2021/01/17 10:25:37;;;;;;;2.08;0.93;;;14.70;64.50;;;;;;4995312;28;20356;-72
2021/01/17 10:28:09;;;;;;;1.70;1.05;;;14.80;63.70;;;;;;5013460;28;20026;-71
2021/01/17 10:30:40;;;;;;;1.80;0.88;;;14.80;64.00;;;;;;5012937;28;20029;-71
2021/01/17 10:33:14;;;;;;;1.90;0.87;;;14.70;64.10;;;;;;5013127;28;20034;-75
2021/01/17 10:35:46;;;;;;;2.55;1.27;;;14.90;63.50;;;;;;5013048;28;20030;-72
2021/01/17 10:38:14;;;;;;;2.47;1.10;;;14.90;63.30;;;;;;5012930;28;20052;-72
2021/01/17 10:40:42;;;;;;;1.92;0.82;;;14.90;63.20;;;;;;5012926;28;20485;-71
2021/01/17 10:43:31;;;;;;;2.15;0.80;;;15.00;63.70;;;;;;5012718;28;20064;-73
2021/01/17 10:46:10;;;;;;;1.60;0.77;;;14.90;64.10;;;;;;5012555;28;20064;-71
2021/01/17 10:48:50;;;;;;;1.50;1.00;;;14.90;64.00;;;;;;5012849;28;20033;-73
2021/01/17 10:51:41;;;;;;;1.65;0.95;;;14.80;64.50;;;;;;4994487;28;20386;-74
2021/01/17 10:54:10;;;;;;;2.95;0.80;;;14.80;64.40;;;;;;5011688;28;20483;-73
2021/01/17 10:56:37;;;;;;;2.30;0.88;;;14.80;64.40;;;;;;5012712;28;20030;-73
2021/01/17 10:59:11;;;;;;;3.25;0.90;;;14.70;64.80;;;;;;5012464;28;20041;-71
2021/01/17 11:01:44;;;;;;;11.95;1.10;;;14.60;65.00;;;;;;5012369;28;20026;-71
2021/01/17 11:04:13;;;;;;;1.50;0.82;;;14.60;65.10;;;;;;5012027;28;20054;-73
2021/01/17 11:06:42;;;;;;;2.80;0.90;;;14.60;65.00;;;;;;5014183;28;20026;-72
2021/01/17 11:09:17;;;;;;;2.22;0.90;;;14.60;64.70;;;;;;5012147;28;20033;-72
2021/01/17 11:11:46;;;;;;;1.63;0.90;;;14.60;65.20;;;;;;5011494;28;20037;-70
2021/01/17 11:14:13;;;;;;;2.95;0.88;;;14.50;65.20;;;;;;5011522;28;20060;-71
2021/01/17 11:16:49;;;;;;;1.58;1.17;;;14.50;65.30;;;;;;5012560;28;20030;-74
2021/01/17 11:19:16;;;;;;;4.85;1.10;;;14.50;65.50;;;;;;5012162;28;20374;-71
2021/01/17 11:21:45;;;;;;;2.58;0.80;;;14.50;65.50;;;;;;5012236;28;20030;-71
2021/01/17 11:24:13;;;;;;;1.02;0.70;;;14.40;65.10;;;;;;5011831;28;20049;-71
2021/01/17 11:26:40;;;;;;;4.10;1.08;;;14.40;65.80;;;;;;5011989;28;20022;-72
2021/01/17 11:29:17;;;;;;;2.22;0.93;;;14.40;64.80;;;;;;4994078;28;20042;-71
2021/01/17 11:31:45;;;;;;;8.65;0.90;;;14.40;65.10;;;;;;4993677;28;20044;-72
2021/01/17 11:34:16;;;;;;;1.17;0.88;;;14.50;65.00;;;;;;5011704;28;20026;-71
2021/01/17 11:36:43;;;;;;;3.65;1.08;;;14.50;65.10;;;;;;5012087;28;20037;-74
2021/01/17 11:39:19;;;;;;;1.67;0.88;;;14.40;64.90;;;;;;5012101;28;20479;-75
2021/01/17 11:41:47;;;;;;;1.55;0.90;;;14.40;64.80;;;;;;5012305;28;20026;-72
2021/01/17 11:44:16;;;;;;;1.88;1.13;;;14.30;64.90;;;;;;5011507;28;20042;-75
2021/01/17 11:46:44;;;;;;;1.35;1.00;;;14.30;65.50;;;;;;4993656;28;20040;-74
2021/01/17 11:49:12;;;;;;;10.00;3.20;;;14.20;65.50;;;;;;4993311;28;20049;-72
2021/01/17 11:51:40;;;;;;;1.30;0.70;;;14.20;65.10;;;;;;5011757;28;20030;-71
2021/01/17 11:54:11;;;;;;;2.33;1.30;;;14.10;65.40;;;;;;5011409;28;20041;-70
2021/01/17 11:56:38;;;;;;;1.42;0.93;;;14.10;65.30;;;;;;5011671;28;20029;-72
2021/01/17 11:59:06;;;;;;;1.63;0.85;;;14.10;65.00;;;;;;4993540;28;20041;-72
2021/01/17 12:01:33;;;;;;;1.50;0.88;;;14.10;65.40;;;;;;5011417;28;20030;-73
2021/01/17 12:04:05;;;;;;;0.77;0.63;;;14.10;65.20;;;;;;5011454;28;20042;-73
2021/01/17 12:06:33;;;;;;;2.38;0.90;;;14.10;65.90;;;;;;5011771;28;20029;-72
2021/01/17 12:09:05;;;;;;;3.35;0.63;;;14.10;65.10;;;;;;5011596;28;20026;-73
2021/01/17 12:11:39;;;;;;;1.75;1.02;;;14.10;65.10;;;;;;5011640;28;20026;-72
2021/01/17 12:14:34;;;;;;;1.90;0.68;;;14.10;64.70;;;;;;5011540;28;20358;-72
2021/01/17 12:17:01;;;;;;;4.82;0.80;;;14.20;64.70;;;;;;5005532;28;20045;-71
2021/01/17 12:19:28;;;;;;;1.25;0.82;;;14.10;64.30;;;;;;5011487;28;20029;-72
2021/01/17 12:21:58;;;;;;;0.70;0.70;;;14.10;64.40;;;;;;5010891;28;20030;-72
2021/01/17 12:24:25;;;;;;;3.47;0.82;;;14.10;64.40;;;;;;5011296;28;20505;-72
2021/01/17 12:26:54;;;;;;;1.58;0.60;;;14.20;64.40;;;;;;5011541;28;20030;-73
2021/01/17 12:29:21;;;;;;;0.98;0.60;;;14.20;64.00;;;;;;5011721;28;20101;-72
2021/01/17 12:31:49;;;;;;;4.30;1.10;;;14.20;64.10;;;;;;5011261;28;20029;-73
2021/01/17 12:34:17;;;;;;;2.80;0.80;;;14.20;64.00;;;;;;5011562;28;20022;-72
2021/01/17 12:36:45;;;;;;;2.03;1.02;;;14.20;64.10;;;;;;5011304;28;20034;-73
2021/01/17 12:39:17;;;;;;;2.67;0.75;;;14.20;63.90;;;;;;5015546;28;20021;-73
2021/01/17 12:41:46;;;;;;;2.72;1.00;;;14.20;64.10;;;;;;5015622;28;20026;-72
2021/01/17 12:44:15;;;;;;;3.40;0.90;;;14.10;64.20;;;;;;5014592;28;20399;-71
2021/01/17 12:46:43;;;;;;;3.42;1.00;;;14.20;63.80;;;;;;5015283;28;20026;-72
2021/01/17 12:49:19;;;;;;;4.05;1.10;;;14.20;64.10;;;;;;5015370;28;20026;-72
2021/01/17 12:51:46;;;;;;;1.67;1.00;;;14.20;63.80;;;;;;5014829;28;20022;-72
2021/01/17 12:54:13;;;;;;;4.53;1.15;;;14.20;63.40;;;;;;5014459;28;20029;-72
2021/01/17 12:56:40;;;;;;;2.22;1.23;;;14.30;63.40;;;;;;5015201;28;20038;-73
2021/01/17 12:59:07;;;;;;;1.95;1.00;;;14.30;63.90;;;;;;5015096;28;20396;-73
2021/01/17 13:01:34;;;;;;;4.95;1.25;;;14.20;64.00;;;;;;5015005;28;20034;-72
2021/01/17 13:04:02;;;;;;;4.13;1.38;;;14.20;64.20;;;;;;5014385;28;20064;-73
2021/01/17 13:06:29;;;;;;;5.40;1.20;;;14.20;63.80;;;;;;5014840;28;20029;-71
2021/01/17 13:08:56;;;;;;;1.52;1.10;;;14.20;64.10;;;;;;5014553;28;20030;-72
2021/01/17 13:11:23;;;;;;;2.33;1.40;;;14.20;64.20;;;;;;5014735;28;20026;-71
2021/01/17 13:13:50;;;;;;;1.80;1.20;;;14.10;64.10;;;;;;5014563;28;20018;-71